Time;durP1;ratioP1;P1;durP2;ratioP2;P2;SDS_P1;SDS_P2;PMS_P1;PMS_P2;Temp;Humidity;BMP_temperature;BMP_pressure;BME280_temperature;BME280_humidity;BME280_pressure;Samples;Min_cycle;Max_cycle;Signal;HPM_P1;HPM_P2
2021/12/05 00:22:37;;;;;;;0.00;0.00;;;4.60;99.90;;;;;;5116676;28;20051;-78
2021/12/05 00:25:06;;;;;;;0.00;0.00;;;4.60;99.90;;;;;;5116822;28;20147;-78
2021/12/05 00:27:38;;;;;;;0.50;0.50;;;4.50;99.90;;;;;;5099818;28;20126;-78
2021/12/05 00:41:12;;;;;;;0.00;0.00;;;4.50;99.90;;;;;;5120941;27;20130;-78
2021/12/05 00:52:26;;;;;;;0.10;0.10;;;4.50;99.90;;;;;;5079050;28;20372;-79
2021/12/05 01:00:30;;;;;;;0.65;0.28;;;4.50;99.90;;;;;;5078458;28;20044;-79
2021/12/05 01:08:40;;;;;;;0.07;0.00;;;4.50;99.90;;;;;;5078354;28;20052;-78
2021/12/05 01:11:29;;;;;;;0.00;0.00;;;4.50;99.90;;;;;;5078607;28;20071;-78
2021/12/05 01:14:22;;;;;;;0.00;0.00;;;4.50;99.90;;;;;;5078304;28;20498;-79
2021/12/05 01:16:48;;;;;;;0.00;0.00;;;4.50;99.90;;;;;;5061767;28;20110;-78
2021/12/05 01:19:16;;;;;;;0.00;0.00;;;4.50;99.90;;;;;;5078529;28;20070;-78
2021/12/05 01:21:44;;;;;;;0.00;0.00;;;4.50;99.90;;;;;;5078319;28;20079;-78
2021/12/05 01:24:25;;;;;;;0.00;0.00;;;4.50;99.90;;;;;;5119800;27;20051;-78
2021/12/05 01:34:54;;;;;;;0.00;0.00;;;4.50;99.90;;;;;;5119351;27;20059;-78
2021/12/05 01:46:11;;;;;;;0.20;0.20;;;4.50;99.90;;;;;;5077436;28;20431;-78
2021/12/05 01:54:27;;;;;;;0.00;0.00;;;4.60;99.90;;;;;;5077756;28;20062;-78
2021/12/05 02:02:39;;;;;;;0.00;0.00;;;4.60;99.90;;;;;;5077016;28;20090;-79
2021/12/05 02:15:59;;;;;;;0.22;0.22;;;4.70;99.90;;;;;;5077209;28;20054;-78
2021/12/05 02:34:54;;;;;;;0.00;0.00;;;4.70;99.90;;;;;;5118357;27;20503;-78
2021/12/05 02:42:36;;;;;;;0.20;0.20;;;4.70;99.90;;;;;;5118099;27;20089;-77
2021/12/05 02:45:06;;;;;;;0.47;0.10;;;4.70;99.90;;;;;;5118246;27;20367;-78
2021/12/05 02:47:33;;;;;;;0.00;0.00;;;4.70;99.90;;;;;;5101065;27;20073;-78
2021/12/05 02:50:05;;;;;;;0.20;0.20;;;4.70;99.90;;;;;;5118055;27;20431;-78
2021/12/05 02:52:40;;;;;;;2.10;0.98;;;4.70;99.90;;;;;;5118120;27;20108;-78
2021/12/05 02:55:12;;;;;;;0.45;0.45;;;4.70;99.90;;;;;;5100326;27;20150;-77
2021/12/05 03:00:18;;;;;;;0.35;0.30;;;4.70;99.90;;;;;;5117634;27;20051;-78
2021/12/05 03:02:47;;;;;;;0.00;0.00;;;4.70;99.90;;;;;;5118043;27;20397;-78
2021/12/05 03:05:20;;;;;;;0.17;0.10;;;4.60;99.90;;;;;;5101045;27;20055;-78
2021/12/05 03:07:48;;;;;;;0.20;0.20;;;4.60;99.90;;;;;;5100664;27;20043;-78
2021/12/05 03:10:19;;;;;;;1.00;0.45;;;4.60;99.90;;;;;;5100563;27;20130;-78
2021/12/05 03:12:46;;;;;;;0.00;0.00;;;4.60;99.90;;;;;;5117440;27;20043;-78
2021/12/05 03:15:15;;;;;;;0.00;0.00;;;4.60;99.90;;;;;;5117611;27;20095;-78
2021/12/05 03:17:42;;;;;;;0.10;0.10;;;4.50;99.90;;;;;;5100878;27;20082;-78
2021/12/05 03:20:09;;;;;;;0.22;0.22;;;4.50;99.90;;;;;;5100099;27;20055;-78
2021/12/05 03:22:35;;;;;;;0.00;0.00;;;4.50;99.90;;;;;;5100270;27;20047;-78
2021/12/05 03:25:01;;;;;;;0.00;0.00;;;4.50;99.90;;;;;;5100251;27;20047;-78
2021/12/05 03:27:27;;;;;;;0.30;0.03;;;4.50;99.90;;;;;;5100212;27;20107;-78
2021/12/05 03:29:53;;;;;;;0.10;0.10;;;4.50;99.90;;;;;;5099736;27;20051;-78
2021/12/05 03:32:19;;;;;;;9.95;0.45;;;4.40;99.90;;;;;;5117626;27;20104;-78
2021/12/05 03:34:45;;;;;;;0.00;0.00;;;4.40;99.90;;;;;;5117140;27;20043;-78
2021/12/05 03:37:12;;;;;;;0.00;0.00;;;4.50;99.90;;;;;;5100080;27;20039;-78
2021/12/05 03:39:38;;;;;;;0.08;0.08;;;4.40;99.90;;;;;;5099884;27;20088;-78
2021/12/05 03:42:04;;;;;;;0.00;0.00;;;4.40;99.90;;;;;;5100377;27;20051;-78
2021/12/05 03:44:33;;;;;;;0.03;0.03;;;4.30;99.90;;;;;;5117050;27;20043;-78
2021/12/05 03:46:59;;;;;;;2.20;0.90;;;4.40;99.90;;;;;;5099967;27;20043;-78
2021/12/05 03:49:28;;;;;;;0.95;0.73;;;4.30;99.90;;;;;;5100497;27;20074;-78
2021/12/05 03:52:08;;;;;;;1.13;0.10;;;4.30;99.90;;;;;;5100250;27;20047;-78
2021/12/05 03:54:34;;;;;;;0.00;0.00;;;4.30;99.90;;;;;;5116410;27;20086;-78
2021/12/05 03:57:02;;;;;;;0.10;0.10;;;4.30;99.90;;;;;;5116969;28;20075;-78
2021/12/05 03:59:28;;;;;;;0.00;0.00;;;4.20;99.90;;;;;;5116686;27;20528;-78
2021/12/05 04:01:56;;;;;;;0.05;0.05;;;4.20;99.90;;;;;;5117199;28;20035;-78
2021/12/05 04:04:21;;;;;;;0.10;0.10;;;4.20;99.90;;;;;;5099799;28;20153;-78
2021/12/05 04:06:48;;;;;;;0.40;0.38;;;4.20;99.90;;;;;;5116443;27;20055;-78
2021/12/05 04:09:16;;;;;;;2.17;0.77;;;4.20;99.90;;;;;;5099354;27;20083;-78
2021/12/05 04:11:47;;;;;;;0.00;0.00;;;4.20;99.90;;;;;;5116493;28;20491;-78
2021/12/05 04:14:14;;;;;;;0.00;0.00;;;4.20;99.90;;;;;;5099816;28;20047;-78
2021/12/05 04:16:41;;;;;;;0.00;0.00;;;4.10;99.90;;;;;;5116931;28;20092;-78
2021/12/05 04:19:07;;;;;;;0.15;0.05;;;4.10;99.90;;;;;;5116344;28;20040;-78
2021/12/05 04:21:36;;;;;;;0.00;0.00;;;4.00;99.90;;;;;;5116433;28;20047;-78
2021/12/05 04:24:05;;;;;;;0.00;0.00;;;4.00;99.90;;;;;;5116669;28;20051;-78
2021/12/05 04:26:31;;;;;;;0.15;0.15;;;3.90;99.90;;;;;;5116319;28;20039;-78
2021/12/05 04:28:57;;;;;;;2.42;0.77;;;3.90;99.90;;;;;;5099627;28;20081;-78
2021/12/05 04:31:23;;;;;;;0.75;0.43;;;3.90;99.90;;;;;;5099848;28;20130;-78
2021/12/05 04:33:50;;;;;;;1.08;1.02;;;3.90;99.90;;;;;;5099513;28;20047;-78
2021/12/05 04:36:17;;;;;;;0.00;0.00;;;3.90;99.90;;;;;;5116526;28;20051;-78
2021/12/05 04:38:43;;;;;;;0.00;0.00;;;3.80;99.90;;;;;;5116370;28;20039;-78
2021/12/05 04:41:09;;;;;;;0.00;0.00;;;3.80;99.90;;;;;;5116517;28;20061;-78
2021/12/05 04:43:38;;;;;;;0.00;0.00;;;3.80;99.90;;;;;;5099573;28;20522;-78
2021/12/05 04:46:08;;;;;;;0.00;0.00;;;3.80;99.90;;;;;;5116247;28;20470;-78
2021/12/05 04:48:34;;;;;;;1.90;0.25;;;3.70;99.90;;;;;;5116207;28;20047;-78
2021/12/05 04:51:00;;;;;;;0.00;0.00;;;3.80;99.90;;;;;;5116204;28;20386;-78
2021/12/05 04:53:27;;;;;;;0.00;0.00;;;3.70;99.90;;;;;;5116248;28;20050;-78
2021/12/05 04:55:53;;;;;;;0.10;0.00;;;3.70;99.90;;;;;;5099242;28;20095;-78
2021/12/05 04:58:19;;;;;;;0.00;0.00;;;3.70;99.90;;;;;;5116052;28;20398;-78
2021/12/05 05:00:47;;;;;;;0.00;0.00;;;3.70;99.90;;;;;;5116061;28;20035;-78
2021/12/05 05:03:14;;;;;;;0.20;0.00;;;3.70;99.90;;;;;;5099364;28;20398;-78
2021/12/05 05:05:46;;;;;;;0.00;0.00;;;3.70;99.90;;;;;;5099863;28;20047;-78
2021/12/05 05:08:12;;;;;;;0.00;0.00;;;3.70;99.90;;;;;;5116209;28;20508;-78
2021/12/05 05:10:37;;;;;;;0.00;0.00;;;3.70;99.90;;;;;;5115899;28;20134;-78
2021/12/05 05:13:04;;;;;;;0.00;0.00;;;3.70;99.90;;;;;;5098935;28;20142;-78
2021/12/05 05:15:31;;;;;;;0.63;0.17;;;3.60;99.90;;;;;;5098898;28;20044;-78
2021/12/05 05:17:58;;;;;;;1.45;0.68;;;3.60;99.90;;;;;;5115750;27;20050;-78
2021/12/05 05:20:54;;;;;;;0.10;0.10;;;3.60;99.90;;;;;;5102751;27;20046;-78
2021/12/05 05:23:30;;;;;;;0.00;0.00;;;3.60;99.90;;;;;;5119253;27;20403;-77
2021/12/05 05:39:58;;;;;;;0.00;0.00;;;3.70;99.90;;;;;;5118975;27;20055;-78
2021/12/05 05:45:13;;;;;;;0.00;0.00;;;3.70;99.90;;;;;;5119201;27;20099;-78
2021/12/05 05:47:59;;;;;;;0.00;0.00;;;3.70;99.90;;;;;;5119530;27;20043;-78
2021/12/05 05:50:25;;;;;;;0.08;0.08;;;3.70;99.90;;;;;;5119180;27;20051;-77
2021/12/05 05:52:50;;;;;;;0.00;0.00;;;3.70;99.90;;;;;;5119013;27;20047;-78
2021/12/05 05:55:16;;;;;;;0.03;0.00;;;3.70;99.90;;;;;;5101972;27;20039;-78
2021/12/05 06:00:18;;;;;;;0.20;0.10;;;3.80;99.90;;;;;;5118624;27;20043;-78
2021/12/05 06:05:32;;;;;;;0.10;0.10;;;3.80;99.90;;;;;;5118284;27;20051;-78
2021/12/05 06:07:58;;;;;;;0.00;0.00;;;3.80;99.90;;;;;;5100595;27;20051;-78
2021/12/05 06:10:27;;;;;;;0.00;0.00;;;3.80;99.90;;;;;;5118217;27;20036;-78
2021/12/05 06:12:54;;;;;;;0.00;0.00;;;3.80;99.90;;;;;;5115387;27;20501;-78
2021/12/05 06:15:23;;;;;;;0.28;0.10;;;3.80;99.90;;;;;;5101211;27;20095;-78
2021/12/05 06:17:49;;;;;;;0.00;0.00;;;3.80;99.90;;;;;;5100734;27;20133;-78
2021/12/05 06:20:22;;;;;;;0.00;0.00;;;3.90;99.90;;;;;;5118058;27;20047;-77
2021/12/05 06:22:48;;;;;;;0.00;0.00;;;3.90;99.90;;;;;;5101917;27;20477;-78
2021/12/05 06:25:20;;;;;;;0.05;0.03;;;3.90;99.90;;;;;;5118517;27;20452;-77
2021/12/05 06:27:47;;;;;;;0.40;0.40;;;3.90;99.90;;;;;;5118153;27;20126;-77
2021/12/05 06:46:18;;;;;;;0.08;0.08;;;4.10;99.90;;;;;;5118391;27;20074;-78
2021/12/05 06:48:45;;;;;;;0.35;0.17;;;4.10;99.90;;;;;;5101283;27;20426;-78
2021/12/05 06:51:13;;;;;;;0.28;0.28;;;4.10;99.90;;;;;;5101317;27;20050;-78
2021/12/05 06:53:39;;;;;;;0.10;0.10;;;4.10;99.90;;;;;;5100198;27;20200;-77
2021/12/05 06:56:06;;;;;;;2.53;0.00;;;4.10;99.90;;;;;;5117983;27;20043;-77
2021/12/05 06:58:32;;;;;;;0.10;0.10;;;4.10;99.90;;;;;;5100962;27;20050;-77
2021/12/05 07:01:01;;;;;;;0.20;0.05;;;4.20;99.90;;;;;;5100239;27;20058;-78
2021/12/05 07:03:26;;;;;;;0.10;0.03;;;4.10;99.90;;;;;;5100603;27;20058;-78
2021/12/05 07:08:45;;;;;;;0.32;0.32;;;4.20;99.90;;;;;;5055611;28;20059;-77
2021/12/05 07:11:19;;;;;;;0.00;0.00;;;4.20;99.90;;;;;;5055901;28;20151;-77
2021/12/05 07:16:31;;;;;;;0.20;0.20;;;4.20;99.90;;;;;;5055131;28;20055;-77
2021/12/05 07:21:36;;;;;;;2.45;0.85;;;4.20;99.90;;;;;;5054912;28;20060;-76
2021/12/05 07:27:06;;;;;;;;;;;4.20;99.90;;;;;;5055064;28;20056;-76
2021/12/05 07:40:30;;;;;;;0.10;0.10;;;4.30;99.90;;;;;;5055201;28;20052;-76
2021/12/05 07:43:06;;;;;;;0.00;0.00;;;4.30;99.90;;;;;;5055099;28;20044;-76
2021/12/05 07:45:40;;;;;;;0.30;0.30;;;4.30;99.90;;;;;;5086109;27;20104;-76
2021/12/05 07:48:14;;;;;;;0.00;0.00;;;4.30;99.90;;;;;;5099608;27;20076;-76
2021/12/05 07:50:50;;;;;;;0.03;0.03;;;4.40;99.90;;;;;;5117182;27;20050;-76
2021/12/05 07:53:24;;;;;;;0.00;0.00;;;4.40;99.90;;;;;;5117245;27;20125;-76
2021/12/05 07:55:53;;;;;;;0.10;0.10;;;4.40;99.90;;;;;;5099404;27;20059;-77
2021/12/05 07:58:33;;;;;;;0.30;0.30;;;4.40;99.90;;;;;;5099718;27;20039;-76
2021/12/05 08:14:41;;;;;;;0.00;0.00;;;4.50;99.90;;;;;;5116835;28;20047;-76
2021/12/05 08:17:14;;;;;;;0.00;0.00;;;4.50;99.90;;;;;;5099615;28;20054;-76
2021/12/05 08:19:39;;;;;;;0.00;0.00;;;4.50;99.90;;;;;;5116592;28;20043;-76
2021/12/05 08:22:05;;;;;;;0.00;0.00;;;4.50;99.90;;;;;;5116528;28;20054;-76
2021/12/05 08:24:33;;;;;;;0.32;0.32;;;4.50;99.90;;;;;;5150925;27;20134;-76
2021/12/05 08:27:00;;;;;;;0.10;0.10;;;4.50;99.90;;;;;;5116434;28;20043;-76
2021/12/05 08:32:26;;;;;;;0.00;0.00;;;4.60;99.90;;;;;;5054736;28;20080;-76
2021/12/05 08:43:17;;;;;;;1.00;0.80;;;4.60;99.90;;;;;;5055018;28;20179;-76
2021/12/05 09:24:19;;;;;;;0.00;0.00;;;4.70;99.90;;;;;;5038031;28;20373;-76
2021/12/05 09:27:06;;;;;;;0.00;0.00;;;4.70;99.90;;;;;;5037573;28;20088;-76
2021/12/05 09:51:16;;;;;;;0.38;0.20;;;4.80;99.90;;;;;;5115916;28;20044;-76
2021/12/05 10:02:33;;;;;;;0.00;0.00;;;4.80;99.90;;;;;;5115485;28;20130;-76
2021/12/05 10:15:29;;;;;;;0.00;0.00;;;4.90;99.90;;;;;;5115486;28;20137;-76
2021/12/05 10:35:37;;;;;;;0.45;0.15;;;5.20;99.90;;;;;;5118322;27;20082;-76
2021/12/05 10:38:09;;;;;;;0.00;0.00;;;5.20;99.90;;;;;;5118537;27;20043;-76
2021/12/05 10:41:06;;;;;;;0.00;0.00;;;5.20;99.90;;;;;;5100802;27;20141;-77
2021/12/05 10:43:33;;;;;;;0.00;0.00;;;5.20;99.90;;;;;;5118475;27;20050;-77
2021/12/05 10:46:07;;;;;;;0.00;0.00;;;5.30;99.90;;;;;;5118482;27;20502;-77
2021/12/05 10:48:54;;;;;;;0.43;0.43;;;5.30;99.90;;;;;;5101371;27;20125;-77
2021/12/05 10:51:27;;;;;;;0.45;0.45;;;5.40;99.90;;;;;;5036485;28;20056;-77
2021/12/05 10:54:05;;;;;;;1.20;0.43;;;5.30;99.90;;;;;;5036448;28;20405;-77
2021/12/05 10:56:33;;;;;;;0.38;0.38;;;5.40;99.90;;;;;;5036886;28;20140;-77
2021/12/05 10:59:20;;;;;;;0.17;0.10;;;5.30;99.90;;;;;;5036439;28;20045;-77
2021/12/05 11:01:58;;;;;;;0.10;0.10;;;5.40;99.90;;;;;;5069468;28;20060;-77
2021/12/05 11:04:29;;;;;;;2.65;0.20;;;5.40;99.90;;;;;;5019527;28;20520;-77
2021/12/05 11:06:59;;;;;;;0.00;0.00;;;5.50;99.90;;;;;;5019863;28;20064;-77
2021/12/05 11:09:30;;;;;;;0.00;0.00;;;5.50;99.90;;;;;;5036366;28;20056;-77
2021/12/05 11:12:08;;;;;;;0.00;0.00;;;5.60;99.90;;;;;;5035941;28;20539;-77
2021/12/05 11:14:43;;;;;;;0.00;0.00;;;5.60;99.90;;;;;;5019480;28;20535;-77
2021/12/05 11:17:13;;;;;;;0.00;0.00;;;5.70;99.90;;;;;;5035137;28;20045;-77
2021/12/05 11:19:42;;;;;;;0.13;0.08;;;5.70;99.90;;;;;;5018595;28;20049;-77
2021/12/05 11:22:22;;;;;;;0.00;0.00;;;5.70;99.90;;;;;;5035733;28;20080;-78
2021/12/05 11:24:49;;;;;;;0.05;0.05;;;5.80;99.90;;;;;;5035809;28;20135;-77
2021/12/05 11:27:25;;;;;;;0.00;0.00;;;5.90;99.90;;;;;;5070085;27;20044;-77
2021/12/05 11:30:20;;;;;;;0.00;0.00;;;5.90;99.90;;;;;;5099992;27;20047;-77
2021/12/05 11:32:49;;;;;;;0.30;0.30;;;6.00;99.90;;;;;;5035127;28;20496;-77
2021/12/05 11:35:20;;;;;;;0.08;0.00;;;6.00;99.90;;;;;;5035372;28;20075;-77
2021/12/05 11:38:06;;;;;;;0.00;0.00;;;6.00;99.90;;;;;;5035670;28;20045;-77
2021/12/05 11:40:46;;;;;;;0.85;0.43;;;6.00;99.90;;;;;;5035792;28;20132;-77
2021/12/05 11:43:24;;;;;;;0.00;0.00;;;5.90;99.90;;;;;;5035665;28;20111;-77
2021/12/05 11:46:11;;;;;;;0.00;0.00;;;6.00;99.90;;;;;;5036198;28;20060;-76
2021/12/05 11:48:43;;;;;;;0.00;0.00;;;5.90;99.90;;;;;;5035067;28;20489;-77
2021/12/05 11:51:31;;;;;;;0.00;0.00;;;5.90;99.90;;;;;;5035363;28;20128;-77
2021/12/05 11:54:25;;;;;;;0.00;0.00;;;5.90;99.90;;;;;;5035901;28;20187;-77
2021/12/05 11:56:58;;;;;;;0.00;0.00;;;5.90;99.90;;;;;;5018778;28;20053;-77
2021/12/05 11:59:31;;;;;;;0.00;0.00;;;5.90;99.90;;;;;;5035230;28;20048;-76
2021/12/05 12:02:03;;;;;;;0.00;0.00;;;5.90;99.90;;;;;;5035067;28;20415;-77
2021/12/05 12:04:55;;;;;;;0.05;0.00;;;5.90;99.90;;;;;;5035388;28;20041;-77
2021/12/05 12:07:39;;;;;;;0.00;0.00;;;5.90;99.90;;;;;;5035402;28;20152;-77
2021/12/05 12:10:07;;;;;;;0.00;0.00;;;5.90;99.90;;;;;;5089695;28;20502;-78
2021/12/05 12:12:33;;;;;;;0.40;0.10;;;5.80;99.90;;;;;;5099475;27;20063;-77
2021/12/05 12:14:59;;;;;;;0.20;0.20;;;5.80;99.90;;;;;;5116804;28;20088;-76
2021/12/05 12:17:25;;;;;;;0.00;0.00;;;5.70;99.90;;;;;;5116481;28;20055;-76
2021/12/05 12:19:54;;;;;;;0.00;0.00;;;5.70;99.90;;;;;;5116608;28;20039;-76
2021/12/05 12:22:21;;;;;;;0.00;0.00;;;5.70;99.90;;;;;;5116298;28;20482;-76
2021/12/05 12:24:54;;;;;;;0.10;0.10;;;5.70;99.90;;;;;;5116426;28;20133;-77
2021/12/05 12:27:20;;;;;;;0.05;0.00;;;5.70;99.90;;;;;;5117245;27;20047;-77
2021/12/05 12:29:48;;;;;;;0.08;0.08;;;5.70;99.90;;;;;;5102974;27;20137;-76
2021/12/05 12:32:19;;;;;;;0.05;0.00;;;5.80;99.90;;;;;;5102944;27;20050;-77
2021/12/05 12:34:45;;;;;;;0.00;0.00;;;5.80;99.90;;;;;;5103505;27;20550;-77
2021/12/05 12:37:13;;;;;;;0.00;0.00;;;5.80;99.90;;;;;;5103143;27;20055;-77
2021/12/05 12:39:45;;;;;;;0.00;0.00;;;5.80;99.90;;;;;;5103608;27;20043;-77
2021/12/05 12:42:25;;;;;;;0.00;0.00;;;5.90;99.90;;;;;;5120709;27;20050;-77
2021/12/05 12:45:14;;;;;;;0.00;0.00;;;5.90;99.90;;;;;;5120617;27;20043;-77
2021/12/05 12:47:55;;;;;;;0.00;0.00;;;5.90;99.90;;;;;;5103365;27;20043;-77
2021/12/05 12:50:51;;;;;;;0.00;0.00;;;6.00;99.90;;;;;;5102974;27;20062;-77
2021/12/05 12:53:29;;;;;;;0.30;0.10;;;6.00;99.90;;;;;;5120469;27;20092;-77
2021/12/05 12:56:06;;;;;;;0.00;0.00;;;6.00;99.90;;;;;;5102883;27;20142;-77
2021/12/05 12:58:48;;;;;;;0.00;0.00;;;6.00;99.90;;;;;;5120669;27;20104;-77
2021/12/05 13:09:57;;;;;;;0.00;0.00;;;6.00;99.90;;;;;;5120889;27;20058;-77
2021/12/05 13:10:09;;;;;;;0.30;0.30;;;6.00;99.90;;;;;;5120006;27;20509;-77
2021/12/05 13:12:48;;;;;;;0.00;0.00;;;6.00;99.90;;;;;;5119951;27;20055;-77
2021/12/05 13:15:36;;;;;;;0.00;0.00;;;6.00;99.90;;;;;;5102525;27;20066;-77
2021/12/05 13:18:10;;;;;;;0.00;0.00;;;6.00;99.90;;;;;;5120016;27;20509;-77
2021/12/05 13:20:42;;;;;;;0.00;0.00;;;6.00;99.90;;;;;;5120028;27;20051;-77
2021/12/05 13:23:15;;;;;;;0.00;0.00;;;6.00;99.90;;;;;;5119813;27;20054;-77
2021/12/05 13:25:59;;;;;;;0.00;0.00;;;6.00;99.90;;;;;;5103677;27;20054;-77
2021/12/05 13:28:32;;;;;;;0.00;0.00;;;6.00;99.90;;;;;;5154458;27;20104;-77
2021/12/05 13:31:00;;;;;;;0.00;0.00;;;6.00;99.90;;;;;;5119211;27;20085;-77
2021/12/05 13:33:31;;;;;;;0.60;0.13;;;6.00;99.90;;;;;;5154095;27;20136;-77
2021/12/05 13:35:58;;;;;;;0.80;0.28;;;6.10;99.90;;;;;;5102692;27;20047;-77
2021/12/05 13:38:40;;;;;;;0.00;0.00;;;6.00;99.90;;;;;;5119747;27;20046;-76
2021/12/05 13:41:11;;;;;;;0.00;0.00;;;6.00;99.90;;;;;;5101906;27;20055;-76
2021/12/05 13:43:38;;;;;;;0.20;0.00;;;6.00;99.90;;;;;;5102456;27;20151;-76
2021/12/05 13:46:31;;;;;;;0.03;0.03;;;6.00;99.90;;;;;;5118890;27;20043;-77
2021/12/05 13:49:21;;;;;;;0.20;0.10;;;5.90;99.90;;;;;;5119338;27;20047;-77
2021/12/05 13:51:46;;;;;;;0.00;0.00;;;5.90;99.90;;;;;;5119246;27;20100;-77
2021/12/05 13:54:24;;;;;;;0.00;0.00;;;5.90;99.90;;;;;;5102317;27;20499;-78
2021/12/05 13:57:05;;;;;;;0.00;0.00;;;5.90;99.90;;;;;;5120119;27;20122;-77
2021/12/05 13:59:30;;;;;;;0.00;0.00;;;5.90;99.90;;;;;;5102017;27;20112;-77
2021/12/05 14:01:56;;;;;;;0.00;0.00;;;6.00;99.90;;;;;;5118988;27;20043;-77
2021/12/05 14:04:24;;;;;;;3.72;1.27;;;6.00;99.90;;;;;;5153534;27;20049;-77
2021/12/05 14:07:01;;;;;;;0.00;0.00;;;6.00;99.90;;;;;;5118819;27;20055;-76
2021/12/05 14:09:36;;;;;;;0.00;0.00;;;5.90;99.90;;;;;;5119248;27;20051;-77
2021/12/05 14:12:07;;;;;;;0.00;0.00;;;5.90;99.90;;;;;;5102120;27;20471;-77
2021/12/05 14:14:40;;;;;;;0.00;0.00;;;5.90;99.90;;;;;;5101596;27;20054;-77
2021/12/05 14:17:30;;;;;;;0.00;0.00;;;5.90;99.90;;;;;;5118777;27;20530;-77
2021/12/05 14:20:05;;;;;;;0.00;0.00;;;6.00;99.90;;;;;;5037030;28;20502;-77
2021/12/05 14:22:33;;;;;;;0.00;0.00;;;6.00;99.90;;;;;;5037039;28;20500;-77
2021/12/05 14:25:03;;;;;;;0.00;0.00;;;6.00;99.90;;;;;;5037046;28;20148;-77
2021/12/05 14:27:36;;;;;;;0.00;0.00;;;5.90;99.90;;;;;;5020480;28;20049;-77
2021/12/05 14:30:06;;;;;;;0.03;0.00;;;5.90;99.90;;;;;;5036745;28;20227;-77
2021/12/05 14:32:37;;;;;;;0.00;0.00;;;5.80;99.90;;;;;;5036413;28;20389;-77
2021/12/05 14:35:08;;;;;;;0.00;0.00;;;5.80;99.90;;;;;;5036452;28;20444;-77
2021/12/05 14:37:35;;;;;;;0.22;0.22;;;5.80;99.90;;;;;;5020016;28;20065;-77
2021/12/05 14:40:11;;;;;;;0.00;0.00;;;5.80;99.90;;;;;;5036592;28;20080;-77
2021/12/05 14:42:41;;;;;;;0.00;0.00;;;5.90;99.90;;;;;;5036422;28;20091;-77
2021/12/05 14:45:14;;;;;;;0.00;0.00;;;5.90;99.90;;;;;;5036629;28;20111;-77
2021/12/05 14:47:42;;;;;;;0.00;0.00;;;5.80;99.90;;;;;;5020032;28;20061;-77
2021/12/05 14:50:14;;;;;;;0.38;0.30;;;5.80;99.90;;;;;;5019564;28;20544;-77
2021/12/05 14:52:43;;;;;;;1.38;0.10;;;5.70;99.90;;;;;;5018860;28;20087;-77
2021/12/05 14:55:11;;;;;;;0.28;0.28;;;5.70;99.90;;;;;;5036107;28;20107;-77
2021/12/05 14:58:02;;;;;;;0.00;0.00;;;5.70;99.90;;;;;;5101851;27;20090;-77
2021/12/05 15:00:34;;;;;;;0.00;0.00;;;5.70;99.90;;;;;;5099978;27;20047;-77
2021/12/05 15:03:05;;;;;;;0.00;0.00;;;5.70;99.90;;;;;;5101008;27;20043;-77
2021/12/05 15:05:32;;;;;;;0.00;0.00;;;5.60;99.90;;;;;;5153047;27;20138;-77
2021/12/05 15:08:04;;;;;;;0.10;0.10;;;5.60;99.90;;;;;;5117615;27;20047;-77
2021/12/05 15:10:30;;;;;;;0.75;0.20;;;5.60;99.90;;;;;;5100523;27;20115;-77
2021/12/05 15:12:56;;;;;;;0.00;0.00;;;5.70;99.90;;;;;;5117615;27;20494;-77
2021/12/05 15:15:24;;;;;;;0.80;0.35;;;5.70;99.90;;;;;;5117657;27;20039;-77
2021/12/05 15:17:49;;;;;;;0.00;0.00;;;5.60;99.90;;;;;;5100096;27;20123;-77
2021/12/05 15:20:21;;;;;;;0.52;0.30;;;5.60;99.90;;;;;;5117019;27;20118;-77
2021/12/05 15:23:14;;;;;;;0.10;0.10;;;5.60;99.90;;;;;;5117236;27;20047;-77
2021/12/05 15:25:42;;;;;;;1.38;0.38;;;5.50;99.90;;;;;;5097187;27;20059;-77
2021/12/05 15:28:10;;;;;;;0.00;0.00;;;5.50;99.90;;;;;;5117403;27;20065;-77
2021/12/05 15:30:46;;;;;;;0.10;0.10;;;5.50;99.90;;;;;;5116968;27;20062;-77
2021/12/05 15:33:21;;;;;;;0.00;0.00;;;5.50;99.90;;;;;;5117383;27;20406;-77
2021/12/05 15:35:47;;;;;;;0.00;0.00;;;5.50;99.90;;;;;;5118057;27;20175;-77
2021/12/05 15:38:21;;;;;;;0.00;0.00;;;5.50;99.90;;;;;;5117473;27;20083;-77
2021/12/05 15:40:48;;;;;;;0.00;0.00;;;5.50;99.90;;;;;;5117428;27;20074;-77
2021/12/05 15:43:17;;;;;;;0.45;0.25;;;5.50;99.90;;;;;;5100285;27;20043;-77
2021/12/05 15:45:45;;;;;;;0.00;0.00;;;5.50;99.90;;;;;;5100019;27;20070;-77
2021/12/05 15:48:20;;;;;;;0.00;0.00;;;5.50;99.90;;;;;;5116985;27;20516;-77
2021/12/05 15:50:47;;;;;;;0.00;0.00;;;5.40;99.90;;;;;;5117264;27;20050;-77
2021/12/05 15:53:12;;;;;;;0.00;0.00;;;5.40;99.90;;;;;;5116954;27;20051;-77
2021/12/05 15:55:45;;;;;;;0.00;0.00;;;5.40;99.90;;;;;;5151377;27;20046;-77
2021/12/05 15:58:25;;;;;;;0.08;0.08;;;5.40;99.90;;;;;;5117125;27;20043;-76
2021/12/05 16:01:04;;;;;;;0.00;0.00;;;5.50;99.90;;;;;;5116591;28;20050;-76
2021/12/05 16:03:46;;;;;;;0.00;0.00;;;5.40;99.90;;;;;;5116531;27;20129;-77
2021/12/05 16:06:14;;;;;;;0.20;0.20;;;5.40;99.90;;;;;;5099032;27;20094;-77
2021/12/05 16:08:40;;;;;;;0.00;0.00;;;5.40;99.90;;;;;;5099264;27;20047;-76
2021/12/05 16:11:15;;;;;;;0.05;0.05;;;5.40;99.90;;;;;;5116303;27;20064;-77
2021/12/05 16:13:43;;;;;;;0.00;0.00;;;5.40;99.90;;;;;;5116692;27;20047;-77
2021/12/05 16:16:22;;;;;;;1.33;0.22;;;5.40;99.90;;;;;;5116648;28;20367;-77
2021/12/05 16:18:52;;;;;;;0.00;0.00;;;5.30;99.90;;;;;;5099977;28;20040;-77
2021/12/05 16:21:20;;;;;;;0.00;0.00;;;5.40;99.90;;;;;;5116634;28;20051;-77
2021/12/05 16:23:48;;;;;;;0.00;0.00;;;5.30;99.90;;;;;;5099852;28;20053;-77
2021/12/05 16:26:19;;;;;;;0.00;0.00;;;5.20;99.90;;;;;;5098426;28;20063;-76
2021/12/05 16:28:53;;;;;;;0.00;0.00;;;5.30;99.90;;;;;;5116763;28;20055;-76
2021/12/05 16:31:29;;;;;;;0.43;0.28;;;5.20;99.90;;;;;;5099418;28;20525;-76
2021/12/05 16:34:17;;;;;;;0.00;0.00;;;5.30;99.90;;;;;;5099851;28;20043;-76
2021/12/05 16:36:57;;;;;;;0.00;0.00;;;5.30;99.90;;;;;;5098922;28;20089;-76
2021/12/05 16:39:34;;;;;;;0.03;0.03;;;5.30;99.90;;;;;;5099518;28;20068;-76
2021/12/05 16:42:03;;;;;;;0.10;0.00;;;5.30;99.90;;;;;;5100257;28;20043;-76
2021/12/05 16:44:33;;;;;;;0.25;0.00;;;5.30;99.90;;;;;;5151277;27;20111;-76
2021/12/05 16:47:04;;;;;;;0.28;0.00;;;5.30;99.90;;;;;;5116370;28;20130;-76
2021/12/05 16:49:36;;;;;;;0.00;0.00;;;5.30;99.90;;;;;;5099588;28;20461;-76
2021/12/05 16:52:04;;;;;;;0.57;0.00;;;5.30;99.90;;;;;;5099239;28;20509;-76
2021/12/05 16:54:32;;;;;;;0.17;0.17;;;5.30;99.90;;;;;;5098001;28;20062;-77
2021/12/05 16:57:13;;;;;;;0.00;0.00;;;5.30;99.90;;;;;;5098715;28;20498;-76
2021/12/05 16:59:43;;;;;;;0.03;0.03;;;5.30;99.90;;;;;;5097709;28;20039;-77
2021/12/05 17:02:21;;;;;;;0.00;0.00;;;5.30;99.90;;;;;;5113249;28;20487;-76
2021/12/05 17:05:00;;;;;;;0.00;0.00;;;5.20;99.90;;;;;;5115399;28;20062;-77
2021/12/05 17:07:44;;;;;;;0.85;0.65;;;5.30;99.90;;;;;;5115581;28;20047;-76
2021/12/05 17:10:25;;;;;;;0.00;0.00;;;5.20;99.90;;;;;;5115691;28;20051;-77
2021/12/05 17:12:55;;;;;;;0.00;0.00;;;5.30;99.90;;;;;;5115677;28;20047;-78
2021/12/05 17:15:22;;;;;;;0.80;0.38;;;5.30;99.90;;;;;;5117450;27;20459;-77
2021/12/05 17:17:49;;;;;;;0.00;0.00;;;5.30;99.90;;;;;;5119373;27;20050;-77
2021/12/05 17:20:21;;;;;;;0.00;0.00;;;5.20;99.90;;;;;;5119132;27;20046;-77
2021/12/05 17:23:08;;;;;;;0.15;0.00;;;5.30;99.90;;;;;;5091781;27;20131;-77
2021/12/05 17:25:38;;;;;;;0.28;0.20;;;5.30;99.90;;;;;;5119707;27;20134;-77
2021/12/05 17:28:13;;;;;;;0.00;0.00;;;5.20;99.90;;;;;;5101828;27;20053;-77
2021/12/05 17:30:56;;;;;;;0.00;0.00;;;5.30;99.90;;;;;;5081460;28;20066;-79
2021/12/05 17:33:33;;;;;;;0.00;0.00;;;5.30;99.90;;;;;;5098863;28;20494;-78
2021/12/05 17:36:14;;;;;;;0.00;0.00;;;5.40;99.90;;;;;;5099492;28;20043;-79
2021/12/05 17:38:40;;;;;;;0.47;0.20;;;5.30;99.90;;;;;;5116063;28;20039;-79
2021/12/05 17:41:06;;;;;;;0.00;0.00;;;5.20;99.90;;;;;;5098531;28;20121;-80
2021/12/05 17:43:32;;;;;;;0.00;0.00;;;5.20;99.90;;;;;;5115919;28;20043;-80
2021/12/05 17:45:58;;;;;;;0.00;0.00;;;5.20;99.90;;;;;;5099019;28;20445;-79
2021/12/05 17:48:24;;;;;;;0.00;0.00;;;5.10;99.90;;;;;;5098127;28;20520;-80
2021/12/05 17:50:53;;;;;;;0.00;0.00;;;5.10;99.90;;;;;;5115393;28;20126;-77
2021/12/05 17:53:20;;;;;;;0.00;0.00;;;5.10;99.90;;;;;;5115007;28;20490;-77
2021/12/05 17:55:48;;;;;;;0.10;0.00;;;5.10;99.90;;;;;;5115604;28;20047;-79
2021/12/05 17:58:35;;;;;;;0.10;0.10;;;5.10;99.90;;;;;;5097618;28;20055;-76
2021/12/05 18:03:45;;;;;;;0.00;0.00;;;5.20;99.90;;;;;;5115277;28;20506;-76
2021/12/05 18:06:11;;;;;;;0.00;0.00;;;5.20;99.90;;;;;;5115550;28;20055;-76
2021/12/05 18:08:37;;;;;;;0.00;0.00;;;5.20;99.90;;;;;;5098607;28;20051;-78
2021/12/05 18:11:10;;;;;;;0.00;0.00;;;5.20;99.90;;;;;;5114421;28;20047;-77
2021/12/05 18:13:37;;;;;;;0.08;0.00;;;5.20;99.90;;;;;;5115026;28;20051;-77
2021/12/05 18:16:11;;;;;;;0.00;0.00;;;5.20;99.90;;;;;;5114856;28;20055;-77
2021/12/05 18:18:37;;;;;;;0.22;0.22;;;5.20;99.90;;;;;;5114179;28;20051;-77
2021/12/05 18:21:06;;;;;;;0.00;0.00;;;5.20;99.90;;;;;;5114003;28;20093;-77
2021/12/05 18:23:34;;;;;;;0.40;0.00;;;5.30;99.90;;;;;;5115135;28;20055;-77
2021/12/05 18:26:00;;;;;;;0.00;0.00;;;5.30;99.90;;;;;;5097340;28;20134;-77
2021/12/05 18:28:26;;;;;;;0.52;0.22;;;5.30;99.90;;;;;;5097934;28;20059;-77